createdAt,value
2022-09-17T00:01:15.719Z,28.00
2022-09-17T00:03:42.660Z,28.30
2022-09-17T00:06:12.320Z,28.60
2022-09-17T00:08:41.222Z,29.00
2022-09-17T00:11:09.487Z,28.90
2022-09-17T00:13:36.510Z,28.80
2022-09-17T00:16:03.645Z,28.70
2022-09-17T00:18:30.647Z,28.60
2022-09-17T00:20:57.592Z,28.10
2022-09-17T00:23:24.916Z,28.20
2022-09-17T00:25:51.846Z,28.70
2022-09-17T00:28:18.899Z,29.10
2022-09-17T00:30:46.821Z,28.80
2022-09-17T00:33:16.284Z,28.80
2022-09-17T00:35:43.669Z,29.10
2022-09-17T00:38:11.242Z,29.70
2022-09-17T00:40:39.214Z,29.40
2022-09-17T00:43:12.418Z,29.20
2022-09-17T00:45:40.853Z,29.60
2022-09-17T00:48:10.833Z,29.60
2022-09-17T00:50:42.284Z,29.20
2022-09-17T00:53:13.984Z,29.20
2022-09-17T00:55:48.819Z,29.50
2022-09-17T00:58:19.084Z,29.80
2022-09-17T01:00:47.425Z,29.70
2022-09-17T01:03:14.982Z,29.30
2022-09-17T01:05:46.395Z,29.10
2022-09-17T01:08:19.424Z,28.90
2022-09-17T01:11:05.821Z,29.30
2022-09-17T01:13:53.084Z,29.90
2022-09-17T01:16:37.871Z,29.20
2022-09-17T01:19:44.399Z,29.70
2022-09-17T01:22:26.298Z,29.90
2022-09-17T01:25:30.165Z,30.30
2022-09-17T01:28:06.288Z,31.20
2022-09-17T01:31:02.257Z,30.90
2022-09-17T01:33:29.166Z,31.30
2022-09-17T01:36:24.699Z,31.10
2022-09-17T01:39:25.130Z,30.60
2022-09-17T01:42:13.868Z,29.80
2022-09-17T01:44:47.818Z,30.40
2022-09-17T01:47:24.312Z,30.40
2022-09-17T01:49:57.630Z,32.50
2022-09-17T01:52:26.942Z,33.70
2022-09-17T01:54:59.821Z,34.20
2022-09-17T01:57:42.804Z,32.80
2022-09-17T02:00:13.814Z,30.70
2022-09-17T02:02:52.158Z,30.40
2022-09-17T02:05:24.435Z,30.60
2022-09-17T02:07:57.509Z,32.00
2022-09-17T02:10:31.867Z,31.80
2022-09-17T02:13:19.656Z,30.80
2022-09-17T02:15:53.837Z,30.30
2022-09-17T02:18:38.446Z,30.40
2022-09-17T02:21:30.405Z,31.80
2022-09-17T02:24:04.012Z,32.30
2022-09-17T02:26:33.254Z,32.30
2022-09-17T02:29:07.950Z,33.40
2022-09-17T02:31:35.694Z,33.00
2022-09-17T02:34:05.864Z,33.80
2022-09-17T02:36:34.634Z,33.70
2022-09-17T02:39:04.098Z,33.70
2022-09-17T02:42:08.197Z,32.90
2022-09-17T02:44:55.078Z,31.70
2022-09-17T02:47:33.626Z,31.80
2022-09-17T02:50:24.906Z,31.20
2022-09-17T02:53:12.135Z,30.80
2022-09-17T02:56:01.030Z,30.90
2022-09-17T02:58:49.099Z,31.80
2022-09-17T03:01:25.730Z,32.30
2022-09-17T03:03:56.424Z,32.20
2022-09-17T03:06:23.808Z,33.40
2022-09-17T03:08:52.077Z,34.90
2022-09-17T03:11:19.017Z,34.90
2022-09-17T03:13:46.054Z,34.70
2022-09-17T03:16:13.088Z,34.90
2022-09-17T03:18:40.058Z,35.20
2022-09-17T03:21:07.048Z,35.10
2022-09-17T03:23:34.122Z,34.30
2022-09-17T03:26:01.282Z,33.60
2022-09-17T03:28:28.339Z,34.20
2022-09-17T03:30:55.525Z,33.40
2022-09-17T03:33:22.661Z,32.50
2022-09-17T03:35:49.894Z,31.30
2022-09-17T03:38:17.400Z,30.80
2022-09-17T03:40:44.481Z,30.50
2022-09-17T03:43:11.494Z,30.00
2022-09-17T03:45:38.422Z,29.90
2022-09-17T03:48:05.398Z,30.00
2022-09-17T03:50:32.724Z,29.60
2022-09-17T03:52:59.711Z,30.00
2022-09-17T03:55:26.663Z,30.00
2022-09-17T03:57:53.649Z,29.60
2022-09-17T04:00:20.568Z,29.10
2022-09-17T04:02:47.854Z,29.80
2022-09-17T04:05:14.971Z,30.10
2022-09-17T04:07:41.924Z,31.00
2022-09-17T04:10:09.155Z,31.00
2022-09-17T04:12:36.434Z,30.90
2022-09-17T04:15:04.510Z,31.00
2022-09-17T04:17:31.806Z,30.70
2022-09-17T04:19:59.339Z,30.50
2022-09-17T04:22:29.187Z,30.60
2022-09-17T04:24:56.082Z,30.30
2022-09-17T04:27:23.193Z,31.10
2022-09-17T04:29:50.371Z,31.40
2022-09-17T04:32:17.471Z,31.00
2022-09-17T04:34:44.466Z,31.00
2022-09-17T04:37:11.458Z,30.40
2022-09-17T04:39:38.377Z,30.70
2022-09-17T04:42:05.454Z,30.90
2022-09-17T04:44:32.534Z,31.70
2022-09-17T04:46:59.563Z,31.10
2022-09-17T04:49:30.125Z,30.80
2022-09-17T04:51:57.050Z,30.40
2022-09-17T04:54:24.373Z,29.80
2022-09-17T04:56:51.872Z,29.60
2022-09-17T04:59:18.832Z,29.90
2022-09-17T05:01:46.026Z,29.30
2022-09-17T05:04:13.604Z,29.20
2022-09-17T05:06:40.705Z,29.40
2022-09-17T05:09:07.817Z,29.50
2022-09-17T05:11:34.869Z,30.00
2022-09-17T05:14:01.865Z,30.50
2022-09-17T05:16:28.814Z,30.00
2022-09-17T05:18:55.984Z,29.70
2022-09-17T05:21:22.980Z,29.60
2022-09-17T05:23:50.286Z,29.60
2022-09-17T05:26:17.233Z,29.60
2022-09-17T05:28:44.286Z,30.00
2022-09-17T05:31:11.258Z,30.00
2022-09-17T05:33:38.192Z,30.00
2022-09-17T05:36:05.337Z,29.80
2022-09-17T05:38:32.299Z,30.00
2022-09-17T05:40:59.259Z,30.00
2022-09-17T05:43:26.266Z,30.00
2022-09-17T05:45:54.423Z,30.40
2022-09-17T05:48:21.415Z,30.80
2022-09-17T05:50:48.501Z,30.00
2022-09-17T05:53:15.434Z,30.00
2022-09-17T05:55:42.401Z,29.70
2022-09-17T05:58:17.265Z,29.40
2022-09-17T06:00:48.105Z,29.80
2022-09-17T06:03:22.947Z,29.60
2022-09-17T06:05:58.684Z,29.60
2022-09-17T06:08:26.841Z,29.60
2022-09-17T06:10:55.414Z,29.50
2022-09-17T06:13:23.931Z,29.50
2022-09-17T06:15:54.373Z,28.90
2022-09-17T06:18:21.688Z,28.70
2022-09-17T06:21:01.080Z,28.40
2022-09-17T06:23:35.289Z,27.80
2022-09-17T06:26:03.393Z,27.90
2022-09-17T06:28:41.523Z,27.40
2022-09-17T06:31:10.255Z,27.40
2022-09-17T06:33:42.395Z,27.10
2022-09-17T06:36:13.922Z,27.10
2022-09-17T06:38:42.558Z,26.90
2022-09-17T06:41:09.602Z,27.10
2022-09-17T06:43:38.897Z,27.50
2022-09-17T06:46:06.553Z,27.50
2022-09-17T06:48:35.288Z,27.60
2022-09-17T06:51:04.278Z,27.50
2022-09-17T06:53:31.495Z,27.80
2022-09-17T06:56:05.276Z,28.00
2022-09-17T06:58:34.307Z,28.10
2022-09-17T07:01:02.450Z,28.70
2022-09-17T07:03:31.112Z,29.40
2022-09-17T07:05:59.075Z,29.30
2022-09-17T07:08:26.598Z,29.60
2022-09-17T07:10:57.327Z,29.70
2022-09-17T07:13:26.165Z,29.80
2022-09-17T07:15:58.606Z,30.70
2022-09-17T07:18:26.786Z,32.10
2022-09-17T07:21:01.967Z,32.70
2022-09-17T07:23:31.473Z,31.50
2022-09-17T07:26:00.527Z,30.60
2022-09-17T07:28:29.002Z,30.70
2022-09-17T07:30:56.737Z,30.50
2022-09-17T07:33:26.239Z,29.80
2022-09-17T07:36:01.315Z,29.50
2022-09-17T07:38:32.357Z,29.10
2022-09-17T07:41:06.886Z,29.80
2022-09-17T07:43:36.550Z,29.50
2022-09-17T07:46:06.097Z,28.70
2022-09-17T07:48:33.940Z,28.70
2022-09-17T07:51:00.895Z,28.00
2022-09-17T07:53:28.425Z,28.50
2022-09-17T07:56:00.360Z,28.40
2022-09-17T07:58:36.730Z,28.70
2022-09-17T08:01:08.939Z,28.80
2022-09-17T08:03:36.765Z,29.30
2022-09-17T08:06:06.889Z,29.50
2022-09-17T08:08:36.001Z,29.00
2022-09-17T08:11:09.360Z,28.70
2022-09-17T08:13:36.744Z,28.80
2022-09-17T08:16:06.889Z,28.60
2022-09-17T08:18:34.841Z,28.20
2022-09-17T08:21:04.274Z,28.10
2022-09-17T08:23:34.167Z,28.20
2022-09-17T08:26:02.087Z,28.50
2022-09-17T08:28:31.272Z,28.40
2022-09-17T08:31:04.276Z,28.70
2022-09-17T08:33:33.385Z,28.30
2022-09-17T08:36:00.768Z,28.80
2022-09-17T08:38:39.878Z,29.30
2022-09-17T08:41:10.055Z,28.90
2022-09-17T08:43:48.353Z,28.60
2022-09-17T08:46:15.464Z,28.50
2022-09-17T08:48:56.770Z,28.90
2022-09-17T08:51:54.422Z,28.70
2022-09-17T08:54:34.176Z,28.50
2022-09-17T08:57:33.573Z,28.80
2022-09-17T09:00:14.549Z,28.30
2022-09-17T09:03:13.757Z,27.80
2022-09-17T09:05:49.661Z,26.70
2022-09-17T09:08:47.785Z,26.90
2022-09-17T09:47:55.653Z,24.80
2022-09-17T09:51:04.510Z,24.50
2022-09-17T09:53:44.717Z,23.70
2022-09-17T09:56:23.320Z,22.90
2022-09-17T09:58:50.586Z,22.30
2022-09-17T10:01:23.102Z,22.70
2022-09-17T10:03:52.976Z,23.20
2022-09-17T10:06:20.672Z,24.00
2022-09-17T10:08:51.095Z,24.20
2022-09-17T10:11:23.818Z,24.50
2022-09-17T10:13:50.751Z,24.80
2022-09-17T10:16:18.186Z,24.30
2022-09-17T10:18:46.786Z,24.50
2022-09-17T10:21:31.629Z,24.70
2022-09-17T10:24:00.047Z,25.30
2022-09-17T10:26:32.684Z,25.90
2022-09-17T10:29:03.533Z,26.20
2022-09-17T10:31:54.085Z,26.20
2022-09-17T10:34:35.263Z,26.60
2022-09-17T10:37:02.082Z,26.70
2022-09-17T10:39:34.809Z,27.10
2022-09-17T10:42:13.564Z,26.70
2022-09-17T10:44:58.333Z,26.90
2022-09-17T10:47:41.249Z,26.90
2022-09-17T10:50:32.998Z,26.70
2022-09-17T10:53:05.848Z,26.80
2022-09-17T10:55:41.625Z,26.70
2022-09-17T10:58:08.563Z,27.30
2022-09-17T11:00:50.861Z,27.30
2022-09-17T11:03:48.484Z,27.30
2022-09-17T11:06:53.779Z,27.50
2022-09-17T11:09:34.966Z,27.90
2022-09-17T11:12:20.172Z,27.90
2022-09-17T11:15:01.839Z,27.80
2022-09-17T11:17:40.845Z,27.30
2022-09-17T11:20:45.290Z,27.00
2022-09-17T11:23:30.227Z,27.50
2022-09-17T11:26:19.271Z,27.90
2022-09-17T11:29:07.458Z,27.70
2022-09-17T11:31:52.927Z,27.10
2022-09-17T11:34:25.678Z,26.70
2022-09-17T11:37:22.553Z,27.40
2022-09-17T11:40:01.508Z,26.90
2022-09-17T11:42:36.646Z,25.80
2022-09-17T11:45:19.468Z,25.30
2022-09-17T11:48:05.788Z,25.40
2022-09-17T11:51:22.222Z,25.90
2022-09-17T11:53:57.177Z,26.10
2022-09-17T11:56:31.320Z,26.70
2022-09-17T11:59:24.473Z,26.90
2022-09-17T12:01:53.419Z,27.00
2022-09-17T12:04:34.432Z,26.60
2022-09-17T12:07:41.548Z,26.20
2022-09-17T12:10:41.605Z,25.90
2022-09-17T12:13:43.346Z,25.60
2022-09-17T12:16:26.855Z,25.50
2022-09-17T12:19:05.507Z,25.50
2022-09-17T12:21:41.769Z,25.80
2022-09-17T12:24:23.604Z,26.10
2022-09-17T12:27:07.814Z,26.00
2022-09-17T12:30:13.446Z,25.90
2022-09-17T12:32:57.066Z,25.70
2022-09-17T12:36:03.140Z,25.30
2022-09-17T12:38:44.683Z,25.80
2022-09-17T12:41:21.040Z,24.80
2022-09-17T12:44:06.824Z,25.00
2022-09-17T12:46:45.358Z,25.20
2022-09-17T12:49:40.037Z,25.90
2022-09-17T12:52:42.561Z,26.90
2022-09-17T12:55:22.539Z,26.90
2022-09-17T12:57:58.458Z,27.60
2022-09-17T13:00:25.556Z,28.70
2022-09-17T13:03:19.007Z,28.30
2022-09-17T13:05:59.356Z,27.60
2022-09-17T13:08:45.095Z,26.30
2022-09-17T13:11:59.235Z,26.10
2022-09-17T13:14:43.870Z,25.00
2022-09-17T13:21:01.643Z,23.60
2022-09-17T13:23:37.823Z,23.30
2022-09-17T13:26:06.345Z,22.70
2022-09-17T13:31:35.504Z,22.70
2022-09-17T13:34:03.521Z,22.50
2022-09-17T13:36:34.693Z,23.00
2022-09-17T13:39:03.429Z,23.20
2022-09-17T13:41:32.865Z,22.80
2022-09-17T13:44:01.263Z,22.80
2022-09-17T13:46:29.310Z,23.70
2022-09-17T13:49:00.413Z,23.80
2022-09-17T13:51:30.225Z,24.30
2022-09-17T13:53:59.469Z,25.40
2022-09-17T13:56:50.907Z,26.50
2022-09-17T13:59:25.569Z,27.40
2022-09-17T14:02:30.050Z,27.90
2022-09-17T14:05:34.310Z,27.80
2022-09-17T14:08:29.334Z,28.00
2022-09-17T14:10:58.736Z,28.70
2022-09-17T14:13:44.519Z,29.20
2022-09-17T14:16:34.098Z,28.60
2022-09-17T14:19:16.671Z,28.80
2022-09-17T14:22:01.647Z,28.40
2022-09-17T14:24:42.613Z,28.50
2022-09-17T14:27:28.093Z,28.60
2022-09-17T14:30:04.519Z,28.00
2022-09-17T14:32:40.376Z,27.80
2022-09-17T14:35:17.956Z,28.10
2022-09-17T14:37:52.673Z,28.30
2022-09-17T14:40:22.608Z,28.30
2022-09-17T14:42:56.755Z,28.10
2022-09-17T14:45:31.914Z,27.50
2022-09-17T14:48:26.985Z,27.30
2022-09-17T14:51:19.268Z,27.30
2022-09-17T14:53:48.195Z,27.80
2022-09-17T14:56:21.179Z,27.90
2022-09-17T14:58:54.903Z,27.80
2022-09-17T15:01:28.919Z,28.40
2022-09-17T15:04:28.043Z,29.40
2022-09-17T15:07:12.432Z,29.40
2022-09-17T15:09:39.527Z,29.70
2022-09-17T15:12:07.797Z,30.00
2022-09-17T15:14:40.250Z,29.50
2022-09-17T15:17:09.117Z,29.50
2022-09-17T15:19:48.194Z,29.30
2022-09-17T15:22:29.389Z,29.60
2022-09-17T15:24:58.784Z,30.30
2022-09-17T15:27:36.889Z,29.50
2022-09-17T15:38:29.489Z,33.50
2022-09-17T15:41:31.081Z,32.50
2022-09-17T15:44:36.328Z,32.90
2022-09-17T15:47:40.601Z,35.70
2022-09-17T15:50:19.977Z,36.10
2022-09-17T15:52:47.426Z,34.30
2022-09-17T15:55:34.740Z,33.30
2022-09-17T15:58:05.317Z,33.20
2022-09-17T16:00:32.967Z,32.80
2022-09-17T16:03:39.835Z,32.50
2022-09-17T16:06:18.905Z,31.60
2022-09-17T16:08:56.772Z,31.90
2022-09-17T16:11:26.440Z,32.40
2022-09-17T16:13:55.125Z,31.80
2022-09-17T16:16:25.645Z,32.20
2022-09-17T16:18:53.198Z,31.80
2022-09-17T16:21:20.643Z,32.40
2022-09-17T16:23:47.714Z,32.80
2022-09-17T16:26:21.252Z,33.20
2022-09-17T16:28:50.941Z,32.90
2022-09-17T16:31:18.180Z,32.80
2022-09-17T16:33:45.138Z,32.00
2022-09-17T16:36:15.480Z,31.60
2022-09-17T16:38:42.568Z,31.30
2022-09-17T16:41:09.917Z,31.40
2022-09-17T16:43:40.324Z,31.40
2022-09-17T16:46:10.676Z,31.10
2022-09-17T16:48:38.339Z,31.10
2022-09-17T16:51:12.769Z,31.60
2022-09-17T16:53:40.099Z,31.40
2022-09-17T16:56:13.104Z,31.00
2022-09-17T16:58:40.376Z,30.50
2022-09-17T17:01:15.136Z,30.60
2022-09-17T17:03:43.154Z,30.30
2022-09-17T17:06:20.852Z,29.90
2022-09-17T17:08:48.512Z,29.50
2022-09-17T17:11:15.506Z,29.30
2022-09-17T17:13:43.287Z,29.20
2022-09-17T17:16:12.265Z,29.40
2022-09-17T17:18:41.906Z,29.60
2022-09-17T17:21:10.824Z,29.50
2022-09-17T17:23:38.056Z,29.70
2022-09-17T17:26:05.329Z,29.70
2022-09-17T17:28:33.691Z,29.50
2022-09-17T17:31:00.894Z,29.40
2022-09-17T17:33:28.083Z,29.50
2022-09-17T17:36:06.628Z,29.30
2022-09-17T17:38:37.002Z,29.20
2022-09-17T17:41:11.595Z,29.50
2022-09-17T17:43:39.100Z,29.70
2022-09-17T17:46:12.221Z,29.60
2022-09-17T17:48:39.634Z,29.50
2022-09-17T17:51:09.322Z,29.60
2022-09-17T17:53:36.888Z,29.60
2022-09-17T17:56:07.614Z,29.40
2022-09-17T17:58:35.615Z,29.80
2022-09-17T18:01:14.455Z,29.60
2022-09-17T18:03:41.438Z,29.50
2022-09-17T18:06:09.044Z,29.60
2022-09-17T18:08:38.094Z,30.00
2022-09-17T18:11:08.310Z,30.20
2022-09-17T18:13:37.022Z,30.40
2022-09-17T18:16:05.288Z,29.80
2022-09-17T18:18:43.541Z,29.80
2022-09-17T18:21:16.579Z,30.00
2022-09-17T18:23:44.527Z,30.20
2022-09-17T18:26:14.694Z,30.00
2022-09-17T18:28:42.614Z,29.60
2022-09-17T18:31:31.592Z,29.50
2022-09-17T18:34:00.846Z,29.50
2022-09-17T18:36:30.638Z,29.50
2022-09-17T18:39:32.931Z,29.20
2022-09-17T18:41:50.119Z,29.10
2022-09-17T18:44:19.175Z,29.20
2022-09-17T18:46:48.081Z,28.90
2022-09-17T18:49:15.813Z,29.00
2022-09-17T18:51:42.776Z,28.70
2022-09-17T18:54:10.982Z,28.40
2022-09-17T18:56:37.930Z,28.20
2022-09-17T18:59:08.340Z,28.00
2022-09-17T19:01:36.029Z,28.00
2022-09-17T19:04:03.810Z,27.90
2022-09-17T19:06:32.469Z,28.00
2022-09-17T19:09:01.372Z,28.30
2022-09-17T19:11:30.355Z,28.40
2022-09-17T19:13:59.928Z,28.50
2022-09-17T19:16:27.114Z,28.40
2022-09-17T19:18:54.226Z,28.60
2022-09-17T19:21:21.957Z,28.30
2022-09-17T19:23:54.818Z,28.40
2022-09-17T19:26:24.479Z,28.50
2022-09-17T19:28:57.910Z,28.50
2022-09-17T19:31:25.827Z,28.70
2022-09-17T19:33:53.308Z,28.70
2022-09-17T19:36:25.913Z,29.20
2022-09-17T19:38:54.436Z,29.30
2022-09-17T19:41:23.441Z,29.20
2022-09-17T19:43:54.630Z,29.10
2022-09-17T19:46:24.322Z,29.60
2022-09-17T19:48:53.600Z,29.30
2022-09-17T19:51:22.473Z,29.10
2022-09-17T19:53:49.656Z,29.60
2022-09-17T19:56:22.139Z,29.80
2022-09-17T19:58:49.593Z,29.80
2022-09-17T20:01:16.960Z,29.80
2022-09-17T20:03:45.535Z,30.00
2022-09-17T20:06:14.823Z,29.80
2022-09-17T20:08:49.630Z,29.60
2022-09-17T20:11:17.828Z,29.60
2022-09-17T20:13:44.824Z,29.10
2022-09-17T20:16:16.063Z,29.10
2022-09-17T20:18:44.184Z,29.70
2022-09-17T20:21:14.207Z,29.10
2022-09-17T20:23:41.461Z,29.40
2022-09-17T20:26:09.058Z,29.30
2022-09-17T20:28:36.144Z,29.50
2022-09-17T20:31:05.608Z,29.50
2022-09-17T20:33:33.112Z,30.10
2022-09-17T20:36:05.758Z,30.40
2022-09-17T20:39:10.172Z,30.50
2022-09-17T20:41:21.050Z,30.00
2022-09-17T20:43:53.398Z,29.40
2022-09-17T20:46:27.574Z,29.60
2022-09-17T20:48:57.651Z,29.60
2022-09-17T20:51:27.596Z,29.40
2022-09-17T20:53:57.520Z,29.40
2022-09-17T20:56:30.482Z,29.50
2022-09-17T20:59:13.247Z,29.30
2022-09-17T21:01:50.334Z,29.80
2022-09-17T21:04:21.066Z,29.80
2022-09-17T21:06:52.929Z,30.40
2022-09-17T21:09:20.737Z,30.80
2022-09-17T21:11:48.999Z,31.60
2022-09-17T21:14:21.139Z,30.40
2022-09-17T21:16:49.154Z,29.80
2022-09-17T21:19:17.765Z,29.60
2022-09-17T21:21:44.954Z,30.20
2022-09-17T21:24:12.479Z,30.00
2022-09-17T21:26:39.468Z,29.90
2022-09-17T21:29:08.972Z,29.50
2022-09-17T21:31:37.374Z,29.80
2022-09-17T21:34:06.927Z,30.00
2022-09-17T21:36:36.600Z,29.80
2022-09-17T21:39:11.242Z,29.60
2022-09-17T21:41:42.309Z,30.00
2022-09-17T21:44:10.694Z,30.00
2022-09-17T21:46:37.996Z,30.00
2022-09-17T21:49:06.245Z,30.00
2022-09-17T21:51:41.767Z,30.00
2022-09-17T21:54:14.422Z,30.10
2022-09-17T21:56:41.767Z,30.30
2022-09-17T21:59:11.234Z,30.00
2022-09-17T22:01:41.269Z,30.30
2022-09-17T22:04:14.990Z,30.60
2022-09-17T22:06:46.126Z,30.40
2022-09-17T22:09:17.776Z,30.00
2022-09-17T22:11:45.360Z,30.00
2022-09-17T22:14:14.771Z,30.20
2022-09-17T22:16:44.028Z,30.00
2022-09-17T22:19:13.142Z,29.10
2022-09-17T22:21:42.984Z,28.80
2022-09-17T22:24:10.947Z,29.00
2022-09-17T22:26:40.890Z,28.70
2022-09-17T22:29:19.028Z,28.40
2022-09-17T22:31:46.758Z,28.40
2022-09-17T22:34:17.074Z,28.80
2022-09-17T22:36:44.469Z,28.80
2022-09-17T22:39:12.612Z,29.30
2022-09-17T22:41:45.268Z,29.90
2022-09-17T22:44:16.030Z,29.80
2022-09-17T22:46:44.017Z,29.70
2022-09-17T22:49:11.993Z,29.70
2022-09-17T22:51:40.011Z,29.50
2022-09-17T22:54:12.120Z,30.00
2022-09-17T22:56:41.404Z,29.80
2022-09-17T22:59:08.333Z,30.00
2022-09-17T23:01:39.043Z,30.00
2022-09-17T23:04:06.832Z,30.00
2022-09-17T23:06:38.140Z,29.70
2022-09-17T23:09:06.177Z,29.60
2022-09-17T23:11:36.749Z,29.80
2022-09-17T23:14:09.649Z,29.00
2022-09-17T23:16:45.644Z,28.80
2022-09-17T23:19:13.923Z,28.70
2022-09-17T23:21:41.335Z,29.40
2022-09-17T23:24:09.858Z,30.20
2022-09-17T23:26:36.922Z,30.90
2022-09-17T23:29:05.683Z,30.90
2022-09-17T23:31:35.385Z,31.50
2022-09-17T23:34:03.418Z,31.70
2022-09-17T23:36:33.583Z,31.20
2022-09-17T23:39:02.646Z,32.00
2022-09-17T23:41:32.903Z,31.60
2022-09-17T23:44:02.060Z,31.10
2022-09-17T23:46:33.099Z,30.40
2022-09-17T23:49:02.654Z,30.20
2022-09-17T23:51:31.160Z,30.20
2022-09-17T23:53:58.452Z,30.80
2022-09-17T23:56:27.106Z,30.80
2022-09-17T23:58:55.319Z,30.40
